»·PEaware :: ASA250 KSEA-KPDX

ASA250 :: KSEA-KPDX

FLIGHT INFORMATION

Flight Status: Arrived
Operator:
Alaska Airlines
More flights by this operator :: More flights under this callsign
Pilot: Anonymous 13363 (13363)
Aircraft: BOEING 737-800
(B738)
More flights by this aircraft type
Origin: KSEA Seattle-Tacoma Intl
United States
Destination: KPDX Portland Intl
United States
More flights between these airports :: More routes between these airports
Route: SEA BUWZO KRATR2
File this flight plan on PilotEdge
Remarks:
Altitude:
(Current/Filed)
17,000ft
Speed:
(Current/Filed)
390kts
Departed: 11-Feb-18 06:12 PM
Arrived: 11-Feb-18 06:51 PM
Distance/Time
Traveled:
112nm/0:39
Distance/Time
To Go:
Arrived

Flight Plot

Page will automatically refresh every two minutes.


Map Options




Map Legend


Flown Route
Filed Route
Departure Airport
Arrival Airport
Navaid (VOR, NDB)
Fix

Horizontal Profiles

Position Reports

Time Latitude Longitude Heading Altitude Ground
Speed
11-Feb-18 17:53 47.447643 -122.302326 41 334ft 0kts
11-Feb-18 17:54 47.447643 -122.302326 41 334ft 0kts
11-Feb-18 17:55 47.447643 -122.302326 41 334ft 0kts
11-Feb-18 17:56 47.447643 -122.302326 41 334ft 0kts
11-Feb-18 17:57 47.447643 -122.302326 41 334ft 0kts
11-Feb-18 17:58 47.447643 -122.302326 41 334ft 0kts
11-Feb-18 17:59 47.447643 -122.302326 41 334ft 0kts
11-Feb-18 18:00 47.447643 -122.302326 41 334ft 0kts
11-Feb-18 18:01 47.447643 -122.302326 41 334ft 0kts
11-Feb-18 18:02 47.447643 -122.302326 41 334ft 0kts
11-Feb-18 18:03 47.447643 -122.302326 41 334ft 0kts
11-Feb-18 18:04 47.447643 -122.302326 41 334ft 0kts
11-Feb-18 18:05 47.447643 -122.302326 41 334ft 0kts
11-Feb-18 18:06 47.447643 -122.302327 41 334ft 0kts
11-Feb-18 18:07 47.447219 -122.302769 9 334ft 2kts
11-Feb-18 18:08 47.446811 -122.302500 306 334ft 1kts
11-Feb-18 18:09 47.446808 -122.302494 306 334ft 0kts
11-Feb-18 18:10 47.446808 -122.302494 306 334ft 0kts
11-Feb-18 18:11 47.446975 -122.302823 307 334ft 4kts
11-Feb-18 18:12 47.447824 -122.304474 307 334ft 8kts
11-Feb-18 18:13 47.446354 -122.306362 183 334ft 11kts
11-Feb-18 18:14 47.442622 -122.306342 181 334ft 15kts
11-Feb-18 18:15 47.437703 -122.306391 181 334ft 19kts
11-Feb-18 18:16 47.433112 -122.305565 180 334ft 14kts
11-Feb-18 18:17 47.431063 -122.306558 288 334ft 1kts
11-Feb-18 18:18 47.431497 -122.307711 312 334ft 9kts
11-Feb-18 18:19 47.453762 -122.307884 0 1080ft 158kts
11-Feb-18 18:20 47.507256 -122.305207 0 4008ft 240kts
11-Feb-18 18:21 47.571601 -122.302720 0 7963ft 261kts
11-Feb-18 18:22 47.641447 -122.301483 0 10860ft 302kts
11-Feb-18 18:23 47.724035 -122.302481 0 14634ft 317kts
11-Feb-18 18:24 47.790998 -122.249055 81 15007ft 315kts
11-Feb-18 18:25 47.729773 -122.175946 181 17038ft 368kts
11-Feb-18 18:26 47.655557 -122.188461 185 17001ft 361kts
11-Feb-18 18:27 47.571637 -122.203021 187 17003ft 359kts
11-Feb-18 18:28 47.481823 -122.218567 188 17001ft 362kts
11-Feb-18 18:29 47.397760 -122.233098 190 17001ft 371kts
11-Feb-18 18:30 47.296598 -122.250580 190 17002ft 386kts
11-Feb-18 18:31 47.190626 -122.268808 190 17001ft 385kts
11-Feb-18 18:32 47.084823 -122.286946 190 16975ft 384kts
11-Feb-18 18:33 46.979463 -122.304963 190 16974ft 383kts
11-Feb-18 18:34 46.877908 -122.309924 184 16972ft 386kts
11-Feb-18 18:35 46.781562 -122.309641 184 16973ft 386kts
11-Feb-18 18:36 46.679081 -122.309606 184 16973ft 389kts
11-Feb-18 18:37 46.569316 -122.309644 182 16973ft 407kts
11-Feb-18 18:38 46.459160 -122.309554 182 16955ft 369kts
11-Feb-18 18:39 46.359416 -122.309572 181 15968ft 368kts
11-Feb-18 18:40 46.260126 -122.310771 190 14172ft 355kts
11-Feb-18 18:41 46.171816 -122.357726 203 15021ft 364kts
11-Feb-18 18:42 46.082494 -122.406859 202 12576ft 341kts
11-Feb-18 18:43 45.994569 -122.454148 202 10178ft 326kts
11-Feb-18 18:44 45.918944 -122.484334 170 7691ft 277kts
11-Feb-18 18:45 45.850617 -122.462855 167 6374ft 274kts
11-Feb-18 18:46 45.784674 -122.441856 167 6001ft 261kts
11-Feb-18 18:47 45.715049 -122.419787 168 5969ft 255kts
11-Feb-18 18:48 45.654961 -122.400804 168 5978ft 227kts
11-Feb-18 18:49 45.604983 -122.363519 126 5993ft 229kts
11-Feb-18 18:50 45.568930 -122.290785 126 5976ft 229kts
11-Feb-18 18:51 45.528473 -122.223649 161 5959ft 224kts
11-Feb-18 18:52 45.482676 -122.265276 262 4782ft 223kts
11-Feb-18 18:53 45.496940 -122.344559 297 3618ft 200kts
11-Feb-18 18:54 45.522968 -122.411625 298 2573ft 174kts
11-Feb-18 18:55 45.544750 -122.466928 299 1737ft 147kts
11-Feb-18 18:56 45.563707 -122.515747 299 846ft 138kts
11-Feb-18 18:57 45.581725 -122.561985 297 147ft 132kts
11-Feb-18 18:58 45.592048 -122.589965 278 23ft 31kts
11-Feb-18 18:59 45.593212 -122.596870 294 23ft 9kts
11-Feb-18 19:00 45.591445 -122.599845 264 23ft 12kts
11-Feb-18 19:01 45.588820 -122.599929 116 23ft 14kts
11-Feb-18 19:02 45.587605 -122.596515 63 23ft 0kts
11-Feb-18 19:03 45.587614 -122.594921 12 23ft 7kts

Navigation Log

Ident Type
1. KSEA Airport
2. SEA Navaid
3. KPDX Airport